Time;durP1;ratioP1;P1;durP2;ratioP2;P2;SDS_P1;SDS_P2;PMS_P1;PMS_P2;Temp;Humidity;BMP_temperature;BMP_pressure;BME280_temperature;BME280_humidity;BME280_pressure;Samples;Min_cycle;Max_cycle;Signal;HPM_P1;HPM_P2
2023/10/18 00:01:29;;;;;;;12.00;6.70;;;4.00;79.20;;;;;;5011191;28;20289;-63
2023/10/18 00:03:58;;;;;;;12.07;6.43;;;4.00;79.20;;;;;;5016781;28;20049;-63
2023/10/18 00:06:24;;;;;;;12.27;6.77;;;4.00;79.10;;;;;;5007114;28;20049;-62
2023/10/18 00:09:32;;;;;;;11.00;7.37;;;4.10;79.10;;;;;;5019350;28;20417;-63
2023/10/18 00:11:36;;;;;;;13.50;7.00;;;4.10;79.10;;;;;;5006363;28;20064;-63
2023/10/18 00:14:03;;;;;;;11.43;6.53;;;4.10;79.10;;;;;;5007304;28;20054;-63
2023/10/18 00:16:28;;;;;;;15.73;6.80;;;4.10;79.10;;;;;;4994879;28;20061;-63
2023/10/18 00:18:54;;;;;;;11.97;6.87;;;4.10;79.10;;;;;;5010122;28;20042;-63
2023/10/18 00:21:19;;;;;;;11.80;6.73;;;4.10;79.10;;;;;;5009933;28;20054;-63
2023/10/18 00:23:45;;;;;;;11.17;6.87;;;4.10;79.00;;;;;;5010594;28;20056;-62
2023/10/18 00:26:11;;;;;;;11.43;7.13;;;4.10;79.10;;;;;;5014919;28;20045;-63
2023/10/18 00:28:38;;;;;;;9.83;6.27;;;4.10;79.10;;;;;;5009158;28;20540;-63
2023/10/18 00:31:14;;;;;;;12.93;7.00;;;4.00;79.00;;;;;;5010615;28;20172;-63
2023/10/18 00:33:40;;;;;;;13.53;7.30;;;4.00;79.00;;;;;;5020333;28;20136;-63
2023/10/18 00:36:10;;;;;;;10.00;7.00;;;4.00;79.20;;;;;;5010660;28;20479;-63
2023/10/18 00:38:36;;;;;;;15.23;6.93;;;4.00;79.20;;;;;;5010292;28;20300;-63
2023/10/18 00:41:05;;;;;;;11.00;7.80;;;3.90;79.20;;;;;;5010015;28;20053;-63
2023/10/18 00:43:30;;;;;;;11.90;7.40;;;3.90;79.30;;;;;;5010682;28;20060;-63
2023/10/18 00:45:56;;;;;;;12.00;7.90;;;3.90;79.30;;;;;;5006761;28;20042;-63
2023/10/18 00:48:28;;;;;;;11.27;8.37;;;3.90;79.40;;;;;;5009918;28;20133;-63
2023/10/18 00:50:56;;;;;;;16.27;8.50;;;3.90;79.50;;;;;;5010565;28;20060;-63
2023/10/18 00:53:26;;;;;;;15.43;8.97;;;3.90;79.40;;;;;;5008350;28;20104;-63
2023/10/18 00:55:57;;;;;;;15.50;9.17;;;4.00;79.50;;;;;;5010515;28;20045;-63
2023/10/18 00:58:24;;;;;;;13.52;7.82;;;4.00;79.60;;;;;;5010008;28;20080;-63
2023/10/18 01:00:53;;;;;;;15.93;9.53;;;4.00;79.70;;;;;;5009977;28;20104;-63
2023/10/18 01:03:36;;;;;;;18.43;10.50;;;4.00;79.60;;;;;;5018718;28;20140;-63
2023/10/18 01:06:12;;;;;;;18.37;10.50;;;4.00;79.60;;;;;;4998480;28;20054;-63
2023/10/18 01:08:38;;;;;;;15.80;10.17;;;4.00;79.60;;;;;;5022616;28;20440;-63
2023/10/18 01:11:07;;;;;;;21.07;11.10;;;4.00;79.60;;;;;;5009240;28;20046;-63
2023/10/18 01:13:37;;;;;;;19.07;11.10;;;4.00;79.70;;;;;;5008627;28;20046;-63
2023/10/18 01:16:13;;;;;;;18.02;11.50;;;4.00;79.70;;;;;;5009711;28;20052;-63
2023/10/18 01:18:42;;;;;;;16.70;11.43;;;4.00;79.70;;;;;;5009618;28;20112;-63
2023/10/18 01:21:19;;;;;;;20.33;12.37;;;4.00;79.70;;;;;;5002934;28;20060;-63
2023/10/18 01:23:51;;;;;;;17.90;11.40;;;4.00;79.50;;;;;;5009478;28;20050;-63
2023/10/18 01:26:28;;;;;;;17.77;12.00;;;3.90;79.50;;;;;;5005094;28;20061;-63
2023/10/18 01:28:55;;;;;;;24.57;12.20;;;3.90;79.50;;;;;;5008095;28;20052;-63
2023/10/18 01:31:22;;;;;;;17.23;12.03;;;3.90;79.50;;;;;;5009451;28;20397;-63
2023/10/18 01:33:50;;;;;;;22.87;13.40;;;3.90;79.50;;;;;;5009265;28;20083;-63
2023/10/18 01:36:18;;;;;;;23.60;13.43;;;3.80;79.60;;;;;;5008736;28;20265;-63
2023/10/18 01:38:54;;;;;;;20.90;14.27;;;3.80;79.60;;;;;;5009107;28;20493;-63
2023/10/18 01:41:30;;;;;;;25.53;14.33;;;3.70;79.60;;;;;;5008602;28;20053;-63
2023/10/18 01:43:59;;;;;;;21.83;14.33;;;3.70;79.70;;;;;;5008367;28;20172;-63
2023/10/18 01:46:25;;;;;;;24.93;14.90;;;3.70;79.70;;;;;;5008719;28;20141;-63
2023/10/18 01:48:51;;;;;;;25.83;14.87;;;3.70;79.80;;;;;;5008409;28;20074;-63
2023/10/18 01:51:17;;;;;;;25.17;16.07;;;3.70;79.80;;;;;;5009908;28;20053;-63
2023/10/18 01:53:43;;;;;;;22.83;16.17;;;3.70;79.90;;;;;;5008703;28;20390;-63
2023/10/18 01:56:10;;;;;;;24.67;16.43;;;3.70;79.90;;;;;;5009002;28;20517;-63
2023/10/18 01:58:35;;;;;;;28.13;17.07;;;3.70;79.80;;;;;;5008852;28;20045;-63
2023/10/18 02:01:08;;;;;;;26.47;16.53;;;3.60;79.80;;;;;;5009192;28;20050;-63
2023/10/18 02:03:39;;;;;;;26.00;16.73;;;3.60;80.00;;;;;;5018896;28;20115;-63
2023/10/18 02:06:09;;;;;;;28.73;16.15;;;3.60;79.80;;;;;;4998181;28;20562;-63
2023/10/18 02:08:35;;;;;;;31.23;17.80;;;3.60;79.90;;;;;;5011642;28;20058;-62
2023/10/18 02:11:09;;;;;;;31.60;17.60;;;3.50;80.00;;;;;;5008838;28;20080;-63
2023/10/18 02:13:39;;;;;;;28.87;17.93;;;3.50;80.00;;;;;;5008710;28;20052;-63
2023/10/18 02:16:06;;;;;;;27.97;18.37;;;3.50;80.00;;;;;;4999580;28;20517;-63
2023/10/18 02:18:33;;;;;;;33.33;19.60;;;3.50;80.10;;;;;;5007060;28;20109;-63
2023/10/18 02:21:00;;;;;;;32.57;19.50;;;3.50;80.20;;;;;;5008514;28;20050;-63
2023/10/18 02:23:34;;;;;;;28.33;18.50;;;3.50;80.30;;;;;;5008799;28;20045;-63
2023/10/18 02:26:22;;;;;;;33.83;21.77;;;3.50;80.50;;;;;;5013232;28;20042;-63
2023/10/18 02:28:48;;;;;;;34.27;20.23;;;3.50;80.50;;;;;;5002094;28;20048;-63
2023/10/18 02:31:15;;;;;;;33.80;21.30;;;3.50;80.60;;;;;;5006974;28;20049;-63
2023/10/18 02:33:44;;;;;;;39.20;22.83;;;3.50;80.60;;;;;;5016729;28;20141;-63
2023/10/18 02:36:11;;;;;;;35.80;22.70;;;3.50;80.70;;;;;;4997297;28;20077;-63
2023/10/18 02:38:41;;;;;;;33.47;22.37;;;3.60;80.70;;;;;;5008903;28;20050;-63
2023/10/18 02:41:26;;;;;;;33.83;22.80;;;3.60;80.70;;;;;;5007885;28;20042;-63
2023/10/18 02:43:55;;;;;;;34.67;23.60;;;3.60;80.90;;;;;;5023941;28;20085;-63
2023/10/18 02:46:25;;;;;;;34.50;21.87;;;3.60;80.80;;;;;;5003849;28;20081;-63
2023/10/18 02:48:55;;;;;;;32.73;21.90;;;3.70;81.00;;;;;;5008458;28;20074;-63
2023/10/18 02:51:24;;;;;;;34.73;22.13;;;3.70;80.90;;;;;;5008555;28;20053;-63
2023/10/18 02:53:54;;;;;;;30.83;21.77;;;3.70;81.00;;;;;;5006938;28;20187;-63
2023/10/18 02:56:20;;;;;;;35.73;22.73;;;3.70;81.00;;;;;;5007256;28;20302;-63
2023/10/18 02:58:49;;;;;;;33.70;21.60;;;3.80;81.00;;;;;;5008157;28;20052;-63
2023/10/18 03:01:18;;;;;;;33.80;21.80;;;3.80;81.10;;;;;;5007196;28;20065;-63
2023/10/18 03:03:46;;;;;;;34.10;20.77;;;3.80;81.10;;;;;;5009121;28;20050;-63
2023/10/18 03:06:16;;;;;;;33.63;20.73;;;3.90;81.10;;;;;;5007687;28;20076;-63
2023/10/18 03:08:47;;;;;;;27.53;19.47;;;3.90;81.10;;;;;;5013213;28;20574;-63
2023/10/18 03:11:13;;;;;;;24.35;15.93;;;3.90;81.20;;;;;;5008433;28;20084;-63
2023/10/18 03:13:38;;;;;;;32.60;19.33;;;3.90;81.20;;;;;;5007732;28;20049;-63
2023/10/18 03:16:05;;;;;;;28.50;19.17;;;3.90;81.10;;;;;;5007904;28;20042;-63
2023/10/18 03:18:34;;;;;;;25.73;17.77;;;3.90;81.10;;;;;;5006367;28;20038;-63
2023/10/18 03:21:05;;;;;;;28.70;18.37;;;3.90;81.10;;;;;;5007563;28;20103;-63
2023/10/18 03:23:31;;;;;;;22.58;15.15;;;3.90;81.10;;;;;;5008345;28;20038;-63
2023/10/18 03:26:04;;;;;;;27.60;18.73;;;3.90;81.10;;;;;;5011900;28;20054;-63
2023/10/18 03:28:35;;;;;;;25.60;17.47;;;3.90;81.00;;;;;;4996084;28;20053;-63
2023/10/18 03:31:05;;;;;;;;;;;3.80;81.00;;;;;;5007974;28;20404;-63
2023/10/18 03:33:33;;;;;;;27.83;18.10;;;3.80;81.20;;;;;;5008253;28;20384;-63
2023/10/18 03:39:20;;;;;;;30.23;18.00;;;3.70;81.00;;;;;;4971681;28;20057;-63
2023/10/18 03:41:50;;;;;;;28.07;18.30;;;3.70;81.00;;;;;;5006687;28;20125;-63
2023/10/18 03:44:21;;;;;;;26.93;18.20;;;3.70;81.00;;;;;;5006769;28;20064;-63
2023/10/18 03:46:47;;;;;;;28.88;18.08;;;3.70;80.90;;;;;;5007088;28;20042;-63
2023/10/18 03:51:56;;;;;;;25.33;17.07;;;3.70;80.90;;;;;;5009562;28;20132;-63
2023/10/18 03:54:27;;;;;;;23.40;17.50;;;3.70;81.00;;;;;;5011494;28;20042;-63
2023/10/18 03:56:54;;;;;;;26.90;18.10;;;3.70;80.90;;;;;;5011022;28;20099;-63
2023/10/18 03:59:21;;;;;;;27.43;17.80;;;3.70;81.00;;;;;;5011894;28;20064;-63
2023/10/18 04:02:06;;;;;;;26.70;17.67;;;3.70;81.10;;;;;;5010359;28;20337;-63
2023/10/18 04:04:36;;;;;;;28.60;17.90;;;3.70;81.10;;;;;;5016007;28;20057;-63
2023/10/18 04:07:27;;;;;;;27.43;17.30;;;3.70;81.20;;;;;;5013889;28;20054;-63
2023/10/18 04:12:27;;;;;;;29.17;19.00;;;3.70;81.20;;;;;;5011226;28;20165;-63
2023/10/18 04:14:56;;;;;;;28.33;19.70;;;3.70;81.30;;;;;;5010605;28;20117;-63
2023/10/18 04:17:44;;;;;;;29.57;19.13;;;3.60;81.20;;;;;;5010685;28;20049;-63
2023/10/18 04:20:22;;;;;;;30.87;19.20;;;3.60;81.10;;;;;;5009505;28;20891;-63
2023/10/18 04:22:51;;;;;;;29.70;18.83;;;3.60;81.20;;;;;;5010984;28;20046;-63
2023/10/18 04:25:26;;;;;;;29.40;18.73;;;3.60;81.20;;;;;;5015089;28;20045;-63
2023/10/18 04:27:59;;;;;;;27.47;20.17;;;3.60;81.10;;;;;;5010490;28;20046;-63
2023/10/18 04:30:32;;;;;;;29.00;19.40;;;3.60;81.10;;;;;;5007252;28;20046;-63
2023/10/18 04:33:12;;;;;;;32.83;20.87;;;3.60;81.10;;;;;;5009973;28;20112;-63
2023/10/18 04:35:52;;;;;;;31.60;20.57;;;3.60;81.10;;;;;;5003815;28;20054;-63
2023/10/18 04:38:30;;;;;;;36.77;21.97;;;3.60;81.20;;;;;;5009868;28;20057;-63
2023/10/18 04:41:06;;;;;;;32.37;21.07;;;3.60;81.20;;;;;;5009978;28;20042;-63
2023/10/18 04:43:33;;;;;;;32.10;22.10;;;3.60;81.20;;;;;;5001888;28;20599;-63
2023/10/18 04:46:07;;;;;;;33.53;22.53;;;3.60;81.20;;;;;;5001857;28;20049;-63
2023/10/18 04:51:27;;;;;;;35.50;22.53;;;3.60;81.10;;;;;;5002473;28;20045;-63
2023/10/18 04:54:01;;;;;;;35.63;23.10;;;3.60;81.10;;;;;;5008091;28;20038;-63
2023/10/18 04:56:32;;;;;;;37.10;24.87;;;3.60;81.00;;;;;;5008557;28;20721;-63
2023/10/18 04:59:07;;;;;;;35.78;23.90;;;3.60;81.10;;;;;;5007650;28;20050;-63
2023/10/18 05:01:36;;;;;;;38.33;25.70;;;3.60;81.20;;;;;;5007301;28;20049;-63
2023/10/18 05:04:20;;;;;;;40.73;25.53;;;3.60;81.30;;;;;;5007901;28;20061;-63
2023/10/18 05:06:56;;;;;;;39.43;25.73;;;3.60;81.40;;;;;;5008508;28;20037;-63
2023/10/18 05:09:35;;;;;;;37.03;26.17;;;3.60;81.50;;;;;;5009503;28;20513;-63
2023/10/18 05:12:07;;;;;;;41.27;26.30;;;3.70;81.50;;;;;;4998700;28;20053;-63
2023/10/18 05:14:35;;;;;;;39.90;25.93;;;3.70;81.50;;;;;;4998119;28;20144;-63
2023/10/18 05:17:22;;;;;;;40.43;26.57;;;3.70;81.40;;;;;;5001330;28;20156;-63
2023/10/18 05:19:49;;;;;;;41.53;26.73;;;3.80;81.50;;;;;;5003481;28;20049;-63
2023/10/18 05:22:23;;;;;;;35.97;25.13;;;3.80;81.40;;;;;;5008134;28;20073;-63
2023/10/18 05:27:45;;;;;;;40.77;25.97;;;3.80;81.10;;;;;;5003010;28;20057;-63
2023/10/18 05:30:15;;;;;;;40.40;25.73;;;3.70;81.00;;;;;;5009639;28;20052;-63
2023/10/18 05:35:26;;;;;;;38.63;25.20;;;3.60;81.10;;;;;;5013403;28;20377;-63
2023/10/18 05:37:59;;;;;;;37.97;24.17;;;3.60;81.00;;;;;;5008156;28;20046;-63
2023/10/18 05:43:03;;;;;;;42.03;27.17;;;3.60;81.10;;;;;;4997901;28;20054;-63
2023/10/18 05:45:33;;;;;;;36.13;26.33;;;3.50;81.20;;;;;;5009764;28;20492;-63
2023/10/18 05:48:03;;;;;;;46.97;28.43;;;3.50;81.20;;;;;;5010067;28;20053;-63
2023/10/18 05:50:35;;;;;;;45.53;27.93;;;3.50;81.20;;;;;;5008351;28;20053;-63
2023/10/18 05:53:06;;;;;;;42.40;28.77;;;3.50;81.30;;;;;;5009726;28;20045;-63
2023/10/18 05:55:32;;;;;;;;;;;3.50;81.50;;;;;;5010155;28;20053;-63
2023/10/18 05:58:04;;;;;;;43.53;28.63;;;3.50;81.60;;;;;;5008539;28;19970;-63
2023/10/18 06:00:32;;;;;;;47.67;28.90;;;3.50;81.60;;;;;;5007769;28;20053;-63
2023/10/18 06:02:59;;;;;;;43.90;29.07;;;3.50;81.50;;;;;;5009611;28;20050;-64
2023/10/18 06:05:27;;;;;;;47.37;29.97;;;3.50;81.50;;;;;;5008979;28;20152;-64
2023/10/18 06:07:53;;;;;;;48.77;30.50;;;3.50;81.50;;;;;;5016637;28;20041;-64
2023/10/18 06:10:23;;;;;;;50.97;31.13;;;3.50;81.50;;;;;;5027112;28;20049;-64
2023/10/18 06:12:49;;;;;;;46.80;29.83;;;3.50;81.50;;;;;;5008318;28;20397;-64
2023/10/18 06:15:30;;;;;;;46.50;29.00;;;3.50;81.50;;;;;;5008086;28;20041;-64
2023/10/18 06:17:57;;;;;;;47.07;28.73;;;3.50;81.50;;;;;;5008107;28;20046;-64
2023/10/18 06:20:29;;;;;;;44.97;28.80;;;3.50;81.40;;;;;;5007522;28;20080;-64
2023/10/18 06:25:46;;;;;;;50.10;31.63;;;3.60;81.60;;;;;;5010377;28;20122;-64
2023/10/18 06:28:19;;;;;;;46.93;30.97;;;3.60;81.60;;;;;;5008832;28;20505;-64
2023/10/18 06:30:49;;;;;;;45.67;30.47;;;3.60;81.60;;;;;;5008347;28;20111;-64
2023/10/18 06:34:30;;;;;;;48.73;30.77;;;3.90;81.60;;;;;;5122103;27;20461;-88
2023/10/18 06:36:56;;;;;;;50.27;31.27;;;3.60;81.50;;;;;;5090703;28;20079;-89
2023/10/18 06:39:37;;;;;;;48.93;31.17;;;3.70;81.50;;;;;;5116617;28;20058;-89
2023/10/18 06:42:06;;;;;;;49.30;31.55;;;3.70;81.50;;;;;;5092446;28;20040;-90
2023/10/18 06:44:36;;;;;;;44.73;31.40;;;3.70;81.50;;;;;;5094957;28;20050;-90
2023/10/18 06:47:06;;;;;;;49.33;31.70;;;3.70;81.50;;;;;;5092530;28;20484;-91
2023/10/18 06:49:32;;;;;;;50.87;31.83;;;3.70;81.50;;;;;;5109640;28;20047;-89
2023/10/18 06:52:00;;;;;;;45.60;31.47;;;3.70;81.60;;;;;;5092608;28;20459;-89
2023/10/18 06:54:31;;;;;;;45.67;31.67;;;3.80;81.70;;;;;;5109402;28;20044;-88
2023/10/18 06:56:57;;;;;;;;;;;3.90;81.70;;;;;;5093036;28;20050;-89
2023/10/18 06:59:42;;;;;;;46.60;31.53;;;3.90;81.80;;;;;;5109800;28;19920;-88
2023/10/18 07:02:08;;;;;;;47.57;31.57;;;4.00;81.80;;;;;;5108721;28;20052;-93
2023/10/18 07:04:37;;;;;;;49.10;30.10;;;4.00;81.70;;;;;;5109398;28;20083;-90
2023/10/18 07:07:19;;;;;;;46.90;31.23;;;4.10;81.70;;;;;;5092318;28;20047;-89
2023/10/18 07:09:45;;;;;;;43.63;30.60;;;4.10;81.70;;;;;;5108428;28;20052;-88
2023/10/18 07:12:11;;;;;;;48.47;30.33;;;4.20;81.60;;;;;;5117774;28;20054;-90
2023/10/18 07:14:41;;;;;;;46.50;30.53;;;4.20;81.60;;;;;;5125101;28;20546;-89
2023/10/18 07:17:09;;;;;;;44.03;29.80;;;4.30;81.50;;;;;;5109020;28;20390;-88
2023/10/18 07:19:47;;;;;;;44.37;30.23;;;4.30;81.50;;;;;;5109290;28;20486;-91
2023/10/18 07:22:21;;;;;;;46.87;29.93;;;4.40;81.50;;;;;;5095975;28;20060;-92
2023/10/18 07:24:54;;;;;;;41.83;28.30;;;4.40;81.40;;;;;;5077434;28;20100;-94
2023/10/18 07:27:20;;;;;;;42.77;28.67;;;4.50;81.40;;;;;;5085024;28;20051;-92
2023/10/18 07:29:47;;;;;;;38.47;27.17;;;4.50;81.30;;;;;;5077709;28;20051;-92
2023/10/18 07:32:13;;;;;;;42.67;28.63;;;4.60;81.20;;;;;;5076138;28;21211;-91
2023/10/18 07:34:40;;;;;;;41.67;28.63;;;4.70;81.20;;;;;;5092504;28;20059;-92
2023/10/18 07:37:23;;;;;;;40.13;27.40;;;4.70;81.10;;;;;;5075647;28;20060;-93
2023/10/18 07:39:49;;;;;;;38.13;27.47;;;4.80;81.20;;;;;;5092858;28;21552;-91
2023/10/18 07:42:18;;;;;;;39.47;28.10;;;4.90;81.00;;;;;;5094844;28;20534;-93
2023/10/18 07:44:46;;;;;;;40.40;26.67;;;4.90;80.90;;;;;;5086100;28;20039;-91
2023/10/18 07:47:18;;;;;;;39.50;26.50;;;5.00;80.90;;;;;;5079968;28;20059;-93
2023/10/18 07:49:45;;;;;;;40.80;27.47;;;5.00;80.80;;;;;;5063960;28;20139;-92
2023/10/18 07:52:11;;;;;;;38.57;27.63;;;5.10;80.70;;;;;;5065314;28;20047;-90
2023/10/18 07:54:37;;;;;;;36.87;25.70;;;5.10;80.70;;;;;;5081381;28;20052;-92
2023/10/18 07:57:03;;;;;;;41.97;26.83;;;5.20;80.70;;;;;;5063374;28;20044;-93
2023/10/18 07:59:30;;;;;;;40.37;25.83;;;5.30;80.70;;;;;;5079388;28;20050;-91
2023/10/18 08:02:12;;;;;;;41.70;27.30;;;5.30;80.70;;;;;;5080047;28;20052;-91
2023/10/18 08:04:40;;;;;;;37.90;25.90;;;5.30;80.60;;;;;;5081217;28;20983;-91
2023/10/18 08:07:15;;;;;;;39.70;25.17;;;5.50;80.50;;;;;;5065339;28;20620;-93
2023/10/18 08:09:43;;;;;;;34.53;25.23;;;5.50;80.60;;;;;;5081425;28;20052;-93
2023/10/18 08:14:50;;;;;;;32.47;24.10;;;5.70;80.20;;;;;;5082381;28;20060;-91
2023/10/18 08:20:29;;;;;;;;;;;5.80;80.30;;;;;;5059633;28;20071;-91
2023/10/18 08:22:55;;;;;;;34.93;24.27;;;5.90;79.40;;;;;;5080321;28;20021;-90
2023/10/18 08:25:24;;;;;;;31.50;22.27;;;6.00;79.30;;;;;;5080793;28;20190;-92
2023/10/18 08:27:51;;;;;;;31.60;22.43;;;6.00;79.20;;;;;;5079973;28;20052;-92
2023/10/18 08:33:03;;;;;;;28.47;20.83;;;6.20;78.70;;;;;;5078424;28;20143;-93
2023/10/18 08:35:29;;;;;;;30.00;21.10;;;6.20;78.70;;;;;;5078679;28;20121;-92
2023/10/18 08:37:55;;;;;;;29.83;21.20;;;6.30;78.00;;;;;;5062729;28;20044;-88
2023/10/18 08:40:30;;;;;;;28.83;20.60;;;6.30;78.00;;;;;;5079908;28;20076;-90
2023/10/18 08:43:28;;;;;;;29.80;21.27;;;6.40;77.70;;;;;;5080606;28;20448;-92
2023/10/18 08:45:55;;;;;;;30.53;20.87;;;6.40;77.70;;;;;;5076564;28;20051;-90
2023/10/18 08:48:38;;;;;;;27.23;20.83;;;6.40;77.70;;;;;;5079400;28;20085;-95
2023/10/18 08:51:04;;;;;;;30.10;22.63;;;6.50;77.80;;;;;;5075009;28;21457;-95
2023/10/18 08:53:31;;;;;;;30.03;21.90;;;6.50;77.80;;;;;;5074262;28;20043;-91
2023/10/18 08:55:57;;;;;;;29.07;21.73;;;6.50;77.80;;;;;;5074055;28;20052;-92
2023/10/18 08:58:30;;;;;;;34.73;22.43;;;6.60;77.70;;;;;;5059347;28;20056;-93
2023/10/18 09:03:27;;;;;;;27.30;20.70;;;6.60;77.50;;;;;;5088755;28;20151;-91
2023/10/18 09:06:04;;;;;;;31.40;20.20;;;6.70;77.40;;;;;;5061208;28;20094;-94
2023/10/18 09:08:37;;;;;;;25.17;19.17;;;6.80;77.30;;;;;;5060849;28;20056;-90
2023/10/18 09:11:20;;;;;;;23.57;18.37;;;6.80;76.90;;;;;;5076305;28;20389;-90
2023/10/18 09:14:07;;;;;;;25.70;20.27;;;6.90;76.40;;;;;;5073643;28;20506;-94
2023/10/18 09:16:38;;;;;;;25.03;19.63;;;6.90;76.40;;;;;;5076973;28;20059;-92
2023/10/18 09:19:06;;;;;;;26.07;19.03;;;7.00;76.60;;;;;;5079080;28;20181;-94
2023/10/18 09:21:50;;;;;;;26.80;18.63;;;7.00;76.40;;;;;;5060586;28;20048;-92
2023/10/18 09:24:22;;;;;;;24.77;18.23;;;7.00;76.60;;;;;;5085661;28;20079;-91
2023/10/18 09:26:51;;;;;;;22.93;16.80;;;7.00;76.70;;;;;;5082995;28;20047;-89
2023/10/18 09:29:17;;;;;;;22.00;16.77;;;7.10;76.50;;;;;;5082710;28;20059;-90
2023/10/18 09:32:19;;;;;;;22.13;16.73;;;7.20;76.00;;;;;;5050893;28;20062;-92
2023/10/18 09:34:46;;;;;;;21.63;16.13;;;7.20;75.70;;;;;;5086096;28;20126;-90
2023/10/18 09:37:11;;;;;;;19.30;15.30;;;7.40;75.80;;;;;;5081913;28;20043;-90
2023/10/18 09:39:43;;;;;;;21.53;15.70;;;7.50;75.40;;;;;;5064406;28;20051;-86
2023/10/18 09:42:12;;;;;;;21.67;14.60;;;7.50;74.70;;;;;;5064940;28;20055;-88
2023/10/18 09:44:41;;;;;;;20.83;14.90;;;7.60;73.70;;;;;;5083545;28;20044;-93
2023/10/18 09:47:08;;;;;;;19.13;14.10;;;7.80;74.30;;;;;;5083313;28;20040;-86
2023/10/18 09:50:23;;;;;;;20.03;14.97;;;7.80;74.80;;;;;;5088119;28;20047;-89
2023/10/18 09:52:56;;;;;;;19.87;15.07;;;7.80;74.10;;;;;;5075436;28;20048;-88
2023/10/18 09:55:26;;;;;;;19.00;15.57;;;8.00;74.00;;;;;;5070979;28;20351;-94
2023/10/18 10:00:42;;;;;;;21.53;14.77;;;8.00;74.20;;;;;;5087072;28;20090;-91
2023/10/18 10:03:12;;;;;;;18.40;15.00;;;8.10;73.60;;;;;;5084329;28;20075;-89
2023/10/18 10:05:42;;;;;;;21.60;14.90;;;8.10;73.60;;;;;;5085918;28;20052;-88
2023/10/18 10:08:09;;;;;;;23.40;15.60;;;8.20;73.80;;;;;;5085022;28;20128;-92
2023/10/18 10:10:48;;;;;;;21.20;15.73;;;8.20;73.20;;;;;;5096568;28;20801;-91
2023/10/18 10:13:19;;;;;;;19.63;15.57;;;8.20;73.30;;;;;;5084040;28;20064;-88
2023/10/18 10:15:56;;;;;;;19.30;15.10;;;8.30;73.50;;;;;;5084787;28;20052;-92
2023/10/18 10:18:26;;;;;;;22.20;16.73;;;8.30;73.30;;;;;;5070730;28;20139;-89
2023/10/18 10:20:54;;;;;;;19.05;15.82;;;8.30;73.50;;;;;;5080239;28;20056;-91
2023/10/18 10:23:21;;;;;;;20.13;15.13;;;8.40;74.00;;;;;;5084427;28;20422;-91
2023/10/18 10:26:11;;;;;;;19.03;14.17;;;8.40;73.20;;;;;;5086102;28;20039;-90
2023/10/18 10:32:06;;;;;;;16.97;13.53;;;8.50;72.70;;;;;;5085439;28;20085;-94
2023/10/18 10:34:41;;;;;;;19.48;14.07;;;8.60;72.20;;;;;;5059068;28;20496;-90
2023/10/18 10:37:09;;;;;;;16.13;13.83;;;8.60;72.90;;;;;;5083964;28;20056;-92
2023/10/18 10:39:44;;;;;;;18.70;13.07;;;8.70;72.80;;;;;;5076866;28;20723;-93
2023/10/18 10:42:29;;;;;;;18.93;12.67;;;8.80;72.50;;;;;;5078758;28;20494;-92
2023/10/18 10:45:07;;;;;;;16.67;12.60;;;8.90;73.00;;;;;;5058722;28;20052;-91
2023/10/18 10:47:42;;;;;;;13.70;12.20;;;9.00;72.30;;;;;;5062636;28;20144;-91
2023/10/18 10:50:09;;;;;;;14.23;12.17;;;9.00;72.50;;;;;;5076686;28;20491;-91
2023/10/18 10:52:40;;;;;;;15.67;11.97;;;9.10;72.10;;;;;;5076621;28;20048;-94
2023/10/18 10:55:22;;;;;;;19.80;12.00;;;9.20;71.40;;;;;;5074252;28;20052;-93
2023/10/18 10:57:52;;;;;;;17.80;10.70;;;9.20;70.60;;;;;;5061540;28;20048;-90
2023/10/18 11:03:30;;;;;;;17.57;11.97;;;9.20;70.80;;;;;;5083387;28;20074;-92
2023/10/18 11:05:58;;;;;;;14.53;11.53;;;9.30;69.60;;;;;;5076741;28;20056;-94
2023/10/18 11:08:29;;;;;;;15.60;12.27;;;9.30;70.20;;;;;;5066061;28;20044;-90
2023/10/18 11:10:55;;;;;;;16.08;11.57;;;9.30;70.40;;;;;;5064570;28;20421;-91
2023/10/18 11:13:22;;;;;;;17.30;12.03;;;9.30;70.10;;;;;;5065074;28;20082;-91
2023/10/18 11:15:54;;;;;;;15.03;12.10;;;9.30;70.00;;;;;;5076397;28;20059;-90
2023/10/18 11:18:20;;;;;;;12.53;10.77;;;9.30;69.60;;;;;;5077553;28;20078;-92
2023/10/18 11:21:05;;;;;;;15.70;11.57;;;9.30;69.60;;;;;;5081690;28;21299;-90
2023/10/18 11:23:33;;;;;;;14.20;11.67;;;9.40;70.00;;;;;;5066954;28;20044;-92
2023/10/18 11:26:08;;;;;;;14.93;11.57;;;9.40;70.50;;;;;;5072609;28;20482;-90
2023/10/18 11:28:37;;;;;;;18.17;11.43;;;9.40;70.60;;;;;;5083434;28;20112;-91
2023/10/18 11:31:04;;;;;;;17.47;12.20;;;9.40;70.40;;;;;;5065224;28;20048;-90
2023/10/18 11:33:46;;;;;;;16.33;11.07;;;9.50;70.10;;;;;;5082486;28;20064;-91
2023/10/18 11:36:18;;;;;;;16.03;11.67;;;9.50;70.00;;;;;;5080277;28;20051;-92
2023/10/18 11:39:07;;;;;;;;;;;9.50;69.70;;;;;;5082298;28;20060;-91
2023/10/18 11:41:35;;;;;;;16.70;10.27;;;9.50;69.00;;;;;;5078060;28;19920;-93
2023/10/18 11:44:08;;;;;;;17.37;10.83;;;9.50;69.40;;;;;;5062806;28;20474;-94
2023/10/18 11:46:49;;;;;;;14.37;11.03;;;9.60;69.30;;;;;;5075351;28;20095;-93
2023/10/18 11:49:19;;;;;;;13.20;10.60;;;9.60;69.20;;;;;;5079143;28;20043;-90
2023/10/18 11:51:48;;;;;;;13.03;10.30;;;9.60;69.40;;;;;;5069397;28;20048;-93
2023/10/18 11:54:53;;;;;;;16.83;10.27;;;9.70;69.00;;;;;;5060173;28;20055;-94
2023/10/18 11:57:26;;;;;;;15.30;10.33;;;9.70;68.30;;;;;;4997869;28;20676;-92
2023/10/18 11:59:56;;;;;;;13.80;11.10;;;9.70;69.40;;;;;;5053619;28;20083;-87
2023/10/18 12:02:29;;;;;;;15.97;11.10;;;9.70;69.10;;;;;;5082829;28;20044;-94
2023/10/18 12:04:56;;;;;;;14.07;10.37;;;9.80;69.40;;;;;;5086200;28;20423;-94
2023/10/18 12:07:22;;;;;;;12.50;9.60;;;9.80;68.60;;;;;;5083534;28;20046;-91
2023/10/18 12:09:52;;;;;;;16.77;11.00;;;9.80;68.60;;;;;;5084555;28;20570;-87
2023/10/18 12:12:24;;;;;;;14.07;10.33;;;9.80;68.90;;;;;;5083769;28;20051;-87
2023/10/18 12:14:50;;;;;;;14.07;10.27;;;9.80;68.60;;;;;;5065269;28;20467;-95
2023/10/18 12:17:15;;;;;;;18.17;10.50;;;9.90;68.20;;;;;;5081028;28;20059;-89
2023/10/18 12:19:42;;;;;;;13.77;10.20;;;9.90;68.60;;;;;;5069244;28;20399;-93
2023/10/18 12:22:15;;;;;;;13.93;10.67;;;10.00;68.60;;;;;;5085562;28;20052;-94
2023/10/18 12:24:41;;;;;;;14.00;10.77;;;10.00;68.50;;;;;;5085009;28;20468;-92
2023/10/18 12:27:33;;;;;;;14.53;10.27;;;10.00;68.80;;;;;;5079575;28;20060;-92
2023/10/18 12:30:09;;;;;;;14.73;10.33;;;10.00;68.50;;;;;;5082830;28;20486;-88
2023/10/18 12:32:42;;;;;;;13.43;10.03;;;10.10;67.70;;;;;;5083428;28;20130;-92
2023/10/18 12:35:13;;;;;;;14.50;9.93;;;10.10;67.70;;;;;;5059684;28;20453;-91
2023/10/18 12:37:40;;;;;;;12.30;9.88;;;10.10;67.90;;;;;;5085605;28;20108;-91
2023/10/18 12:40:27;;;;;;;14.67;9.77;;;10.20;68.10;;;;;;5085170;28;20196;-89
2023/10/18 12:43:05;;;;;;;13.30;10.47;;;10.20;67.80;;;;;;5086852;28;21296;-95
2023/10/18 12:45:42;;;;;;;12.10;9.87;;;10.20;68.00;;;;;;5088193;28;20047;-89
2023/10/18 12:48:31;;;;;;;13.93;10.13;;;10.20;68.70;;;;;;5068494;28;20060;-90
2023/10/18 12:50:59;;;;;;;13.03;10.60;;;10.20;68.90;;;;;;5051532;28;20125;-91
2023/10/18 12:55:58;;;;;;;14.23;10.20;;;10.20;68.30;;;;;;5066887;28;20106;-89
2023/10/18 12:58:31;;;;;;;16.87;10.87;;;10.20;68.70;;;;;;5047795;28;20056;-89
2023/10/18 13:01:10;;;;;;;13.53;9.80;;;10.20;68.40;;;;;;5061609;28;20564;-90
2023/10/18 13:03:45;;;;;;;12.40;9.93;;;10.20;68.40;;;;;;5063660;28;20052;-87
2023/10/18 13:06:18;;;;;;;13.40;9.57;;;10.20;68.50;;;;;;5059225;28;20056;-92
2023/10/18 13:09:29;;;;;;;13.53;9.73;;;10.20;68.50;;;;;;5060720;28;20060;-93
2023/10/18 13:14:09;;;;;;;11.73;9.67;;;10.10;68.20;;;;;;5060744;28;20135;-92
2023/10/18 13:16:34;;;;;;;14.50;10.17;;;10.10;68.10;;;;;;5059638;28;20055;-92
2023/10/18 13:19:03;;;;;;;12.27;9.90;;;10.10;68.00;;;;;;5066595;28;20410;-88
2023/10/18 13:21:29;;;;;;;12.23;10.10;;;10.00;68.00;;;;;;5084274;28;20509;-92
2023/10/18 13:26:40;;;;;;;13.00;10.07;;;10.10;68.50;;;;;;5066546;28;20112;-94
2023/10/18 13:29:13;;;;;;;14.70;10.50;;;10.00;68.30;;;;;;5086422;28;20074;-90
2023/10/18 13:31:44;;;;;;;16.90;10.63;;;10.00;68.70;;;;;;5068014;28;20048;-90
2023/10/18 13:34:18;;;;;;;15.15;10.20;;;10.00;68.80;;;;;;5085718;28;20078;-94
2023/10/18 13:36:47;;;;;;;14.63;10.03;;;10.00;68.60;;;;;;5080497;28;20506;-90
2023/10/18 13:39:16;;;;;;;16.80;11.03;;;10.00;68.50;;;;;;5081892;28;20067;-89
2023/10/18 13:41:46;;;;;;;18.37;10.53;;;10.00;68.80;;;;;;5066640;28;20923;-89
2023/10/18 13:44:19;;;;;;;19.40;12.23;;;10.00;68.80;;;;;;5066500;28;20048;-92
2023/10/18 13:46:54;;;;;;;12.70;10.00;;;10.00;68.30;;;;;;5079567;28;20048;-92
2023/10/18 13:49:23;;;;;;;13.57;10.10;;;10.00;68.70;;;;;;5084562;28;20376;-92
2023/10/18 13:51:50;;;;;;;14.33;10.67;;;10.00;69.00;;;;;;5080054;28;20449;-92